SVPL1: Red River at Shreveport Site 2

                                SHEF ID:       SVPL1     Red River at Shreveport Site 2
STATION TYPE:

PRECIP STAGE RIV-FLOW VOLTAGE
in ft cfs volt
Ccp-Rev Ccp-Rev Ccp-Rev Ccp-Rev
(America/Chicago)
06/21 00:00 0.00 18.26 36300 12.80
06/21 01:00 0.00 18.29 36450 12.77
06/21 02:00 0.00 18.37 36850 12.76
06/21 03:00 0.00 18.43 37150 12.75
06/21 04:00 0.00 18.48 37400 12.74
06/21 05:00 0.00 18.52 37600 12.73
06/21 06:00 0.00 18.60 38000 12.73
06/21 07:00 0.00 18.64 38200 12.82
06/21 08:00 0.00 18.70 38500 13.09
06/21 09:00 0.00 18.75 38750 13.23
06/21 10:00 0.00 18.81 39050 13.05
06/21 11:00 0.00 18.77 38850 13.03
06/21 12:00 0.00 18.86 39300 13.05
06/21 13:00 0.00 18.87 39350 13.09
06/21 14:00 0.00 18.96 39800 13.08
06/21 15:00 0.00 19.03 40150 13.09
06/21 16:00 0.00 19.08 40400 13.06
06/21 17:00 0.00 19.16 40800 13.05
06/21 18:00 0.00 19.18 40900 13.06
06/21 19:00 0.00 19.26 41300 12.91
06/21 20:00 0.00 19.39 41950 12.87
06/21 21:00 0.00 19.41 42050 12.86
06/21 22:00 0.00 19.49 42450 12.84
06/21 23:00 0.00 19.41 42050 12.86
Data processed at Mon 22Jun2026 04:24 GMT

NOTICE: If you are parsing this page

Please convert to using our Data API. Starting early 2026 we will be migrating to: https://water.usace.army.mil with modern pages rendered in JavaScript. When this migration completes you will no longer be able to scrape this page! CWMSDataAPI (CDA)

Timeseries IDs (TSIDs)

TSIDs used from left to right in the data table
SHRE.Precip-Inc.Total.1Hour.1Hour.Ccp-Rev
SHRE.Stage.Inst.1Hour.0.Ccp-Rev
SHRE.Flow.Inst.1Hour.0.Ccp-Rev
SHRE.Volt-Battery.Inst.1Hour.0.Ccp-Rev

                            

All information presented herein is the property of the government of the United States of America and may be revised or deleted at any time without prior notice. Dissemination of this information without the expressed written consent of the Public Affairs Office, Tulsa District U.S. Army Corps of Engineers is strictly prohibited. These data are gathered electronically and, as presented, have NOT undergone any form of quality control. These data are NOT guaranteed to be valid or correct.